ADDS METAR Data INFO
IDs: Format: Raw Decoded Include TAF

Data at: 0730 UTC 16 Jan 2018

METAR for:KBRO (Brownsville Intl, TX, US)
Text:KBRO 160653Z AUTO 11007KT 10SM OVC070 18/13 A3025 RMK AO2 SLP242 T01830133
Temperature: 18.3°C ( 65°F)
Dewpoint: 13.3°C ( 56°F) [RH = 73%]
Pressure (altimeter):30.25 inches Hg (1024.5 mb) [Sea level pressure: 1024.2 mb]
Winds:from the ESE (110 degrees) at 8 MPH (7 knots; 3.6 m/s)
Visibility:10 or more sm (16+ km)
Ceiling:7000 feet AGL
Clouds: overcast cloud deck at 7000 feet AGL
QC Flag:automated observation with no human augmentation